Time;durP1;ratioP1;P1;durP2;ratioP2;P2;SDS_P1;SDS_P2;PMS_P1;PMS_P2;Temp;Humidity;BMP_temperature;BMP_pressure;BME280_temperature;BME280_humidity;BME280_pressure;Samples;Min_cycle;Max_cycle;Signal;HPM_P1;HPM_P2
2021/01/19 00:02:11;;;;;;;2.03;1.80;;;2.40;99.90;;;;;;4996570;28;20077;-88
2021/01/19 00:04:37;;;;;;;4.10;2.20;;;2.40;99.90;;;;;;4996441;28;20073;-87
2021/01/19 00:07:03;;;;;;;1.75;1.65;;;2.40;99.90;;;;;;4996547;28;20075;-87
2021/01/19 00:09:30;;;;;;;1.83;1.73;;;2.40;99.90;;;;;;5014182;28;20145;-88
2021/01/19 00:11:57;;;;;;;1.92;1.83;;;2.30;99.90;;;;;;4996537;28;20104;-87
2021/01/19 00:14:23;;;;;;;2.28;2.08;;;2.30;99.90;;;;;;4996630;28;20046;-85
2021/01/19 00:16:49;;;;;;;2.00;1.80;;;2.20;99.90;;;;;;4996666;28;20093;-87
2021/01/19 00:19:16;;;;;;;2.97;1.73;;;2.30;99.90;;;;;;5013709;28;20050;-88
2021/01/19 00:21:42;;;;;;;1.70;1.60;;;2.30;99.90;;;;;;4996015;28;20148;-87
2021/01/19 00:24:08;;;;;;;1.88;1.77;;;2.20;99.90;;;;;;4996579;28;20490;-87
2021/01/19 00:26:34;;;;;;;1.65;1.60;;;2.30;99.90;;;;;;4995910;28;20498;-87
2021/01/19 00:29:01;;;;;;;2.00;1.88;;;2.20;99.90;;;;;;5013572;28;20132;-87
2021/01/19 00:31:27;;;;;;;2.53;1.60;;;2.20;99.90;;;;;;5013716;28;20048;-87
2021/01/19 00:33:53;;;;;;;1.73;1.63;;;2.20;99.90;;;;;;5013563;28;20142;-87
2021/01/19 00:36:19;;;;;;;2.05;1.90;;;2.20;99.90;;;;;;4996326;28;20077;-87
2021/01/19 00:38:45;;;;;;;1.63;1.50;;;2.30;99.90;;;;;;4996388;28;20077;-87
2021/01/19 00:41:11;;;;;;;1.55;1.48;;;2.30;99.90;;;;;;5013576;28;20122;-86
2021/01/19 00:43:38;;;;;;;1.60;1.50;;;2.30;99.90;;;;;;5013770;28;20057;-87
2021/01/19 00:46:04;;;;;;;1.42;1.40;;;2.30;99.90;;;;;;5013681;28;20138;-87
2021/01/19 00:48:31;;;;;;;3.05;1.70;;;2.30;99.90;;;;;;4996106;28;20233;-87
2021/01/19 00:50:59;;;;;;;1.90;1.80;;;2.30;99.90;;;;;;4996315;28;20050;-87
2021/01/19 00:53:26;;;;;;;1.90;1.80;;;2.30;99.90;;;;;;4996748;28;20089;-88
2021/01/19 00:55:52;;;;;;;1.52;1.42;;;2.30;99.90;;;;;;5013697;28;20494;-87
2021/01/19 00:58:18;;;;;;;2.28;1.95;;;2.30;99.90;;;;;;4996221;28;20142;-87
2021/01/19 01:00:45;;;;;;;2.22;1.95;;;2.20;99.90;;;;;;5013491;28;20054;-87
2021/01/19 01:03:11;;;;;;;2.38;1.70;;;2.20;99.90;;;;;;4997204;28;20564;-87
2021/01/19 01:05:38;;;;;;;2.72;1.50;;;2.20;99.90;;;;;;4997418;28;20095;-86
2021/01/19 01:08:05;;;;;;;4.13;1.92;;;2.20;99.90;;;;;;5000011;28;20141;-87
2021/01/19 01:10:32;;;;;;;2.78;1.67;;;2.20;99.90;;;;;;4999789;28;20108;-87
2021/01/19 01:12:58;;;;;;;2.58;2.38;;;2.20;99.90;;;;;;5017171;28;20115;-87
2021/01/19 01:15:33;;;;;;;2.15;2.05;;;2.10;99.90;;;;;;5000027;28;20393;-87
2021/01/19 01:18:00;;;;;;;3.15;1.95;;;2.00;99.90;;;;;;4999593;28;20136;-87
2021/01/19 01:20:26;;;;;;;2.03;1.92;;;1.90;99.90;;;;;;4999699;28;20089;-87
2021/01/19 01:22:53;;;;;;;3.15;2.20;;;1.90;99.90;;;;;;5016495;28;20070;-87
2021/01/19 01:25:20;;;;;;;2.20;1.90;;;1.90;99.90;;;;;;4999607;28;20086;-87
2021/01/19 01:27:47;;;;;;;2.92;1.95;;;1.90;99.90;;;;;;4999720;28;20056;-87
2021/01/19 01:30:16;;;;;;;2.25;2.05;;;1.90;99.90;;;;;;5016589;28;20139;-87
2021/01/19 01:32:49;;;;;;;2.75;2.42;;;1.80;99.90;;;;;;4999326;28;20054;-88
2021/01/19 01:35:16;;;;;;;3.17;2.77;;;1.90;99.90;;;;;;5016625;28;20553;-87
2021/01/19 01:37:48;;;;;;;3.25;2.13;;;1.90;99.90;;;;;;4999459;28;20104;-87
2021/01/19 01:40:20;;;;;;;2.03;1.92;;;1.90;99.90;;;;;;5012418;28;20050;-87
2021/01/19 01:42:48;;;;;;;;;;;2.00;99.90;;;;;;4999717;28;20054;-87
2021/01/19 01:45:18;;;;;;;8.93;3.67;;;1.90;99.90;;;;;;5016545;28;20025;-87
2021/01/19 01:47:49;;;;;;;2.22;2.08;;;1.80;99.90;;;;;;4999185;28;20140;-87
2021/01/19 01:50:17;;;;;;;2.50;2.40;;;1.80;99.90;;;;;;4996564;28;20053;-87
2021/01/19 01:52:44;;;;;;;2.42;2.33;;;1.80;99.90;;;;;;4999095;28;20097;-88
2021/01/19 01:55:11;;;;;;;2.50;2.30;;;1.90;99.90;;;;;;4999171;28;20053;-87
2021/01/19 01:57:38;;;;;;;4.85;3.05;;;1.90;99.90;;;;;;4998929;28;20045;-87
2021/01/19 02:00:09;;;;;;;2.80;2.60;;;1.90;99.90;;;;;;4999196;28;20073;-87
2021/01/19 02:02:56;;;;;;;2.60;2.20;;;1.90;99.90;;;;;;5015945;28;20056;-87
2021/01/19 02:05:24;;;;;;;2.83;1.98;;;2.00;99.90;;;;;;5016135;28;20049;-87
2021/01/19 02:08:06;;;;;;;2.33;2.20;;;2.00;99.90;;;;;;5015797;28;20057;-87
2021/01/19 02:11:00;;;;;;;2.47;2.30;;;2.00;99.90;;;;;;5016030;28;20081;-86
2021/01/19 02:14:16;;;;;;;2.35;2.25;;;2.00;99.90;;;;;;4998723;28;20052;-87
2021/01/19 02:17:05;;;;;;;2.65;2.30;;;2.00;99.90;;;;;;4974634;28;20129;-87
2021/01/19 02:19:59;;;;;;;2.20;2.10;;;2.00;99.90;;;;;;5015934;28;20137;-87
2021/01/19 02:22:53;;;;;;;2.40;2.20;;;2.00;99.90;;;;;;4998282;28;20081;-87
2021/01/19 02:25:59;;;;;;;2.08;1.98;;;2.00;99.90;;;;;;4998499;28;20103;-87
2021/01/19 02:28:43;;;;;;;2.33;2.10;;;2.10;99.90;;;;;;4998395;28;20473;-86
2021/01/19 02:31:42;;;;;;;2.30;2.20;;;2.10;99.90;;;;;;5015545;28;20137;-87
2021/01/19 02:34:36;;;;;;;2.45;2.25;;;2.20;99.90;;;;;;5015578;28;20112;-87
2021/01/19 02:37:12;;;;;;;2.47;2.03;;;2.20;99.90;;;;;;4998045;28;20137;-87
2021/01/19 02:39:46;;;;;;;3.92;2.53;;;2.20;99.90;;;;;;4998385;28;20136;-87
2021/01/19 02:42:20;;;;;;;3.70;2.90;;;2.30;99.90;;;;;;4998196;28;20141;-87
2021/01/19 02:44:48;;;;;;;4.78;3.25;;;2.40;99.90;;;;;;4998188;28;20057;-86
2021/01/19 02:47:14;;;;;;;5.00;3.13;;;2.50;99.90;;;;;;4997793;28;20054;-87
2021/01/19 02:49:44;;;;;;;5.28;3.22;;;2.40;99.90;;;;;;4997943;28;20132;-87
2021/01/19 02:52:12;;;;;;;6.53;3.50;;;2.50;99.90;;;;;;4997709;28;20042;-85
2021/01/19 02:54:39;;;;;;;7.30;3.80;;;2.50;99.90;;;;;;4998130;28;20375;-88
2021/01/19 02:57:31;;;;;;;6.18;4.05;;;2.50;99.90;;;;;;5014988;28;20383;-87
2021/01/19 03:00:18;;;;;;;5.97;4.40;;;2.50;99.90;;;;;;4997495;28;20553;-88
2021/01/19 03:02:45;;;;;;;7.25;4.65;;;2.50;99.90;;;;;;4997080;28;20555;-86
2021/01/19 03:05:15;;;;;;;10.55;5.07;;;2.50;99.90;;;;;;4997587;28;20049;-86
2021/01/19 03:07:45;;;;;;;7.05;4.90;;;2.50;99.90;;;;;;5015044;28;20086;-88
2021/01/19 03:10:15;;;;;;;8.35;4.60;;;2.50;99.90;;;;;;4997591;28;20169;-85
2021/01/19 03:12:44;;;;;;;10.68;5.18;;;2.50;99.90;;;;;;4997695;28;20108;-86
2021/01/19 03:15:11;;;;;;;7.70;4.65;;;2.50;99.90;;;;;;4997445;28;20073;-87
2021/01/19 03:17:40;;;;;;;9.27;5.15;;;2.50;99.90;;;;;;4997387;28;20510;-87
2021/01/19 03:20:06;;;;;;;9.93;5.35;;;2.50;99.90;;;;;;5014740;28;20046;-87
2021/01/19 03:22:33;;;;;;;10.93;5.30;;;2.50;99.90;;;;;;5014676;28;20622;-85
2021/01/19 03:24:59;;;;;;;5.75;4.82;;;2.40;99.90;;;;;;4997457;28;20077;-86
2021/01/19 03:27:25;;;;;;;8.60;5.05;;;2.40;99.90;;;;;;5014553;28;20136;-86
2021/01/19 03:29:51;;;;;;;12.48;5.00;;;2.40;99.90;;;;;;5014158;28;20431;-87
2021/01/19 03:32:17;;;;;;;7.75;4.40;;;2.40;99.90;;;;;;4997242;28;20074;-86
2021/01/19 03:34:44;;;;;;;9.70;5.00;;;2.50;99.90;;;;;;5014553;28;20050;-85
2021/01/19 03:37:10;;;;;;;7.15;4.75;;;2.50;99.90;;;;;;4997039;28;20050;-86
2021/01/19 03:39:36;;;;;;;8.75;4.60;;;2.50;99.90;;;;;;5014278;28;20089;-86
2021/01/19 03:42:02;;;;;;;7.03;4.80;;;2.50;99.90;;;;;;5014277;28;20132;-87
2021/01/19 03:44:29;;;;;;;4.75;4.18;;;2.50;99.90;;;;;;5013995;28;20478;-86
2021/01/19 03:46:55;;;;;;;6.18;4.15;;;2.50;99.90;;;;;;4996853;28;20046;-84
2021/01/19 03:49:21;;;;;;;6.95;4.28;;;2.50;99.90;;;;;;5014453;28;20413;-87
2021/01/19 03:51:47;;;;;;;9.27;4.07;;;2.60;99.90;;;;;;4996821;28;20077;-87
2021/01/19 03:54:14;;;;;;;7.47;4.28;;;2.60;99.90;;;;;;4996448;28;20141;-86
2021/01/19 03:56:40;;;;;;;7.50;3.90;;;2.60;99.90;;;;;;4996697;28;20128;-85
2021/01/19 03:59:06;;;;;;;6.93;4.20;;;2.60;99.90;;;;;;4996373;28;20085;-86
2021/01/19 04:01:39;;;;;;;6.57;3.58;;;2.60;99.90;;;;;;4996514;28;20641;-85
2021/01/19 04:04:05;;;;;;;6.27;3.87;;;2.60;99.90;;;;;;4996848;28;20050;-84
2021/01/19 04:06:31;;;;;;;6.75;3.35;;;2.70;99.90;;;;;;4996552;28;20144;-86
2021/01/19 04:08:58;;;;;;;5.68;3.17;;;2.70;99.90;;;;;;4996420;28;20145;-87
2021/01/19 04:11:25;;;;;;;4.88;3.28;;;2.60;99.90;;;;;;5013571;28;20154;-85
2021/01/19 04:13:51;;;;;;;5.70;3.50;;;2.70;99.90;;;;;;4996904;28;20550;-85
2021/01/19 04:16:17;;;;;;;5.72;3.35;;;2.70;99.90;;;;;;4996594;28;20130;-85
2021/01/19 04:18:43;;;;;;;4.25;3.15;;;2.60;99.90;;;;;;5013568;28;20473;-85
2021/01/19 04:21:10;;;;;;;5.13;3.25;;;2.60;99.90;;;;;;4996357;28;20498;-85
2021/01/19 04:23:37;;;;;;;3.28;2.97;;;2.60;99.90;;;;;;5014042;28;20172;-86
2021/01/19 04:26:03;;;;;;;8.68;2.88;;;2.50;99.90;;;;;;5013560;28;20112;-85
2021/01/19 04:28:29;;;;;;;3.70;2.60;;;2.50;99.90;;;;;;4996067;28;20100;-85
2021/01/19 04:30:56;;;;;;;6.75;2.38;;;2.50;99.90;;;;;;4996057;28;20128;-85
2021/01/19 04:33:22;;;;;;;4.40;2.60;;;2.60;99.90;;;;;;5013504;28;20124;-85
2021/01/19 04:35:48;;;;;;;6.47;2.63;;;2.70;99.90;;;;;;5013677;28;20048;-86
2021/01/19 04:38:14;;;;;;;3.95;2.20;;;2.70;99.90;;;;;;5013316;28;20181;-85
2021/01/19 04:40:41;;;;;;;5.07;2.20;;;2.70;99.90;;;;;;5016498;28;20045;-85
2021/01/19 04:43:09;;;;;;;4.13;1.98;;;2.80;99.90;;;;;;5017327;28;20057;-85
2021/01/19 04:45:36;;;;;;;5.32;2.13;;;2.80;99.90;;;;;;5000288;28;20046;-85
2021/01/19 04:48:02;;;;;;;6.82;2.45;;;2.80;99.90;;;;;;5017052;28;20090;-85
2021/01/19 04:50:29;;;;;;;5.45;2.17;;;2.80;99.90;;;;;;4999752;28;20137;-84
2021/01/19 04:52:59;;;;;;;8.20;2.15;;;2.80;99.90;;;;;;5017118;28;20061;-85
2021/01/19 04:55:26;;;;;;;5.63;2.15;;;2.70;99.90;;;;;;4999718;28;20401;-85
2021/01/19 04:58:00;;;;;;;7.35;2.10;;;2.70;99.90;;;;;;5017171;28;20085;-86
2021/01/19 05:00:33;;;;;;;3.85;2.10;;;2.70;99.90;;;;;;5017112;28;20092;-85
2021/01/19 05:03:02;;;;;;;5.43;2.15;;;2.80;99.90;;;;;;4999206;28;20081;-84
2021/01/19 05:05:37;;;;;;;2.75;2.05;;;2.80;99.90;;;;;;4999826;28;20470;-85
2021/01/19 05:08:18;;;;;;;7.00;2.25;;;2.80;99.90;;;;;;5016829;28;20054;-85
2021/01/19 05:10:55;;;;;;;3.83;1.80;;;2.80;99.90;;;;;;4999491;28;20465;-85
2021/01/19 05:13:48;;;;;;;2.90;1.88;;;2.80;99.90;;;;;;5016787;28;20081;-85
2021/01/19 05:16:17;;;;;;;5.72;2.03;;;2.70;99.90;;;;;;4999184;28;20050;-84
2021/01/19 05:18:45;;;;;;;3.55;1.55;;;2.80;99.90;;;;;;5016657;28;20100;-86
2021/01/19 05:21:12;;;;;;;3.20;1.60;;;2.70;99.90;;;;;;5016449;28;20132;-86
2021/01/19 05:23:38;;;;;;;3.55;1.85;;;2.70;99.90;;;;;;5016626;28;20054;-86
2021/01/19 05:26:06;;;;;;;3.80;2.03;;;2.70;99.90;;;;;;4999538;28;20484;-86
2021/01/19 05:28:37;;;;;;;4.70;2.10;;;2.70;99.90;;;;;;4998873;28;20046;-85
2021/01/19 05:31:16;;;;;;;4.57;1.98;;;2.70;99.90;;;;;;5016497;28;20084;-85
2021/01/19 05:34:01;;;;;;;2.55;1.75;;;2.70;99.90;;;;;;5016791;28;20152;-84
2021/01/19 05:36:41;;;;;;;3.92;1.80;;;2.70;99.90;;;;;;5016317;28;20049;-85
2021/01/19 05:39:14;;;;;;;3.22;1.55;;;2.70;99.90;;;;;;4998847;28;20049;-86
2021/01/19 05:41:49;;;;;;;3.63;1.95;;;2.70;99.90;;;;;;4998960;28;20056;-86
2021/01/19 05:44:27;;;;;;;2.45;1.80;;;2.70;99.90;;;;;;5016343;28;20108;-86
2021/01/19 05:47:01;;;;;;;5.35;1.75;;;2.60;99.90;;;;;;4998867;28;20057;-85
2021/01/19 05:49:41;;;;;;;5.05;1.83;;;2.60;99.90;;;;;;4999113;28;20112;-86
2021/01/19 05:52:08;;;;;;;3.28;2.15;;;2.60;99.90;;;;;;5015592;28;20144;-85
2021/01/19 05:54:43;;;;;;;7.85;2.17;;;2.60;99.90;;;;;;5016465;28;20056;-86
2021/01/19 05:57:12;;;;;;;3.47;1.80;;;2.60;99.90;;;;;;4998428;28;20103;-85
2021/01/19 05:59:46;;;;;;;7.65;1.85;;;2.60;99.90;;;;;;4998685;28;20059;-86
2021/01/19 06:02:15;;;;;;;3.90;1.60;;;2.60;99.90;;;;;;5015600;28;20057;-85
2021/01/19 06:04:44;;;;;;;3.83;1.90;;;2.60;99.90;;;;;;4998382;28;20494;-87
2021/01/19 06:07:12;;;;;;;3.75;1.65;;;2.60;99.90;;;;;;5015303;28;20573;-85
2021/01/19 06:09:41;;;;;;;7.03;2.10;;;2.60;99.90;;;;;;4998329;28;20140;-85
2021/01/19 06:12:08;;;;;;;2.92;1.92;;;2.60;99.90;;;;;;4998119;28;20092;-85
2021/01/19 06:14:35;;;;;;;7.68;2.00;;;2.60;99.90;;;;;;4998491;28;20049;-87
2021/01/19 06:17:09;;;;;;;3.60;1.80;;;2.60;99.90;;;;;;4998514;28;20503;-87
2021/01/19 06:19:36;;;;;;;1.83;1.67;;;2.60;99.90;;;;;;4998420;28;20062;-85
2021/01/19 06:22:10;;;;;;;4.15;1.52;;;2.50;99.90;;;;;;5014850;28;20210;-84
2021/01/19 06:24:45;;;;;;;7.38;2.10;;;2.50;99.90;;;;;;4998380;28;20137;-86
2021/01/19 06:27:25;;;;;;;3.05;1.75;;;2.50;99.90;;;;;;4997710;28;20049;-84
2021/01/19 06:29:58;;;;;;;5.10;2.15;;;2.50;99.90;;;;;;4997889;28;20081;-86
2021/01/19 06:32:29;;;;;;;3.78;1.98;;;2.40;99.90;;;;;;4997453;28;20504;-86
2021/01/19 06:34:56;;;;;;;5.05;1.63;;;2.40;99.90;;;;;;5014845;28;20079;-84
2021/01/19 06:37:25;;;;;;;4.72;1.65;;;2.40;99.90;;;;;;4997599;28;20100;-84
2021/01/19 06:40:05;;;;;;;3.53;1.90;;;2.40;99.90;;;;;;5014891;28;20070;-85
2021/01/19 06:42:36;;;;;;;5.28;1.85;;;2.40;99.90;;;;;;4998044;28;20100;-84
2021/01/19 06:45:12;;;;;;;2.45;2.03;;;2.40;99.90;;;;;;5014710;28;20136;-84
2021/01/19 06:47:52;;;;;;;2.67;1.95;;;2.40;99.90;;;;;;4997790;28;20053;-85
2021/01/19 06:50:23;;;;;;;6.13;2.45;;;2.40;99.90;;;;;;5014578;28;20136;-85
2021/01/19 06:53:10;;;;;;;5.03;1.80;;;2.30;99.90;;;;;;5014622;28;20068;-85
2021/01/19 06:55:58;;;;;;;4.10;2.03;;;2.30;99.90;;;;;;5014098;28;20122;-85
2021/01/19 06:58:56;;;;;;;4.97;2.15;;;2.20;99.90;;;;;;4997869;28;20080;-85
2021/01/19 07:01:23;;;;;;;6.40;2.10;;;2.20;99.90;;;;;;4993118;28;20046;-86
2021/01/19 07:04:23;;;;;;;3.38;2.40;;;2.20;99.90;;;;;;5013664;28;20042;-86
2021/01/19 07:07:06;;;;;;;4.00;2.70;;;2.20;99.90;;;;;;5014419;28;20045;-86
2021/01/19 07:10:09;;;;;;;4.15;2.13;;;2.20;99.90;;;;;;5014850;28;20054;-84
2021/01/19 07:13:00;;;;;;;6.72;2.00;;;2.20;99.90;;;;;;4997034;28;20133;-85
2021/01/19 07:15:55;;;;;;;3.30;2.35;;;2.20;99.90;;;;;;4997064;28;20136;-87
2021/01/19 07:18:43;;;;;;;8.15;2.33;;;2.20;99.90;;;;;;4997315;28;20050;-86
2021/01/19 07:21:13;;;;;;;5.78;2.03;;;2.20;99.90;;;;;;5014248;28;20104;-86
2021/01/19 07:23:48;;;;;;;6.20;2.80;;;2.20;99.90;;;;;;4996822;28;20180;-85
2021/01/19 07:26:21;;;;;;;7.25;2.90;;;2.20;99.90;;;;;;4996936;28;20188;-85
2021/01/19 07:28:50;;;;;;;6.28;2.95;;;2.20;99.90;;;;;;4996375;28;20049;-86
2021/01/19 07:31:20;;;;;;;8.93;2.38;;;2.30;99.90;;;;;;4996784;28;20069;-87
2021/01/19 07:33:52;;;;;;;7.22;2.50;;;2.20;99.90;;;;;;5014276;28;20442;-86
2021/01/19 07:36:21;;;;;;;5.28;2.20;;;2.30;99.90;;;;;;4996584;28;20049;-85
2021/01/19 07:38:49;;;;;;;3.80;2.30;;;2.30;99.90;;;;;;5013890;28;20461;-85
2021/01/19 07:41:27;;;;;;;5.95;2.20;;;2.30;99.90;;;;;;4996506;28;20081;-85
2021/01/19 07:43:54;;;;;;;2.38;1.80;;;2.40;99.90;;;;;;5013882;28;20145;-84
2021/01/19 07:46:38;;;;;;;3.75;2.30;;;2.40;99.90;;;;;;5013871;28;20065;-87
2021/01/19 07:49:06;;;;;;;3.40;2.10;;;2.40;99.90;;;;;;4996255;28;20453;-86
2021/01/19 07:52:07;;;;;;;3.63;2.17;;;2.50;99.90;;;;;;4996682;28;20052;-85
2021/01/19 07:54:35;;;;;;;6.57;2.33;;;2.50;99.90;;;;;;4995982;28;20171;-86
2021/01/19 07:57:13;;;;;;;4.05;2.05;;;2.50;99.90;;;;;;4996410;28;20104;-86
2021/01/19 07:59:40;;;;;;;5.03;1.92;;;2.50;99.90;;;;;;4996522;28;20168;-85
2021/01/19 08:02:06;;;;;;;6.05;2.40;;;2.60;99.90;;;;;;5013404;28;20046;-85
2021/01/19 08:04:37;;;;;;;2.67;2.40;;;2.60;99.90;;;;;;5013520;28;20433;-84
2021/01/19 08:07:14;;;;;;;6.00;2.35;;;2.60;99.90;;;;;;5013087;28;20113;-85
2021/01/19 08:09:41;;;;;;;5.05;1.92;;;2.60;99.90;;;;;;4996477;28;20443;-85
2021/01/19 08:12:11;;;;;;;5.38;2.60;;;2.70;99.90;;;;;;5013516;28;20120;-85
2021/01/19 08:14:39;;;;;;;3.40;1.90;;;2.60;99.90;;;;;;4995627;28;20092;-86
2021/01/19 08:17:07;;;;;;;4.72;1.88;;;2.60;99.90;;;;;;4995707;28;20544;-85
2021/01/19 08:19:40;;;;;;;3.35;2.38;;;2.60;99.90;;;;;;4996068;28;20153;-85
2021/01/19 08:22:12;;;;;;;5.45;1.63;;;2.70;99.90;;;;;;4995847;28;20050;-85
2021/01/19 08:24:44;;;;;;;7.78;2.30;;;2.70;99.90;;;;;;5010379;28;20084;-85
2021/01/19 08:27:11;;;;;;;7.18;1.80;;;2.70;99.90;;;;;;5013097;28;20151;-86
2021/01/19 08:29:38;;;;;;;2.30;1.73;;;2.80;99.90;;;;;;4995826;28;20589;-84
2021/01/19 08:32:08;;;;;;;4.00;1.90;;;2.70;99.90;;;;;;4995574;28;20052;-87
2021/01/19 08:34:38;;;;;;;2.13;1.40;;;2.80;99.90;;;;;;4996241;28;20460;-85
2021/01/19 08:37:04;;;;;;;5.65;1.83;;;2.80;99.90;;;;;;4996047;28;20041;-85
2021/01/19 08:39:30;;;;;;;4.20;1.92;;;2.80;99.90;;;;;;5013568;28;20058;-86
2021/01/19 08:41:57;;;;;;;7.28;2.08;;;2.80;99.90;;;;;;4995906;28;20050;-83
2021/01/19 08:44:31;;;;;;;3.78;1.77;;;2.80;99.90;;;;;;5013386;28;20092;-86
2021/01/19 08:46:58;;;;;;;2.92;1.77;;;2.90;99.90;;;;;;5013196;28;20501;-85
2021/01/19 08:49:34;;;;;;;6.50;1.50;;;2.90;99.90;;;;;;5013427;28;20050;-85
2021/01/19 08:52:02;;;;;;;8.23;2.30;;;2.90;99.90;;;;;;4995931;28;20050;-85
2021/01/19 08:54:31;;;;;;;3.10;1.98;;;2.90;99.90;;;;;;5013170;28;20054;-84
2021/01/19 08:56:58;;;;;;;8.35;2.40;;;2.90;99.90;;;;;;5013336;28;20053;-85
2021/01/19 08:59:35;;;;;;;4.45;1.80;;;2.90;99.90;;;;;;5013398;28;20046;-87
2021/01/19 09:02:03;;;;;;;5.55;1.90;;;2.90;99.90;;;;;;5013018;28;20050;-85
2021/01/19 09:04:29;;;;;;;2.83;2.33;;;2.90;99.90;;;;;;4995898;28;20532;-85
2021/01/19 09:07:07;;;;;;;6.55;1.70;;;2.90;99.90;;;;;;4995529;28;20049;-86
2021/01/19 09:09:35;;;;;;;3.72;2.17;;;3.00;99.90;;;;;;4995628;28;20050;-85
2021/01/19 09:12:01;;;;;;;2.30;1.50;;;3.00;99.90;;;;;;5013122;28;20125;-84
2021/01/19 09:14:28;;;;;;;3.75;1.80;;;3.00;99.90;;;;;;5013252;28;20057;-85
2021/01/19 09:16:55;;;;;;;4.50;1.92;;;3.00;99.90;;;;;;4995744;28;20045;-86
2021/01/19 09:19:22;;;;;;;3.45;1.58;;;3.00;99.90;;;;;;5013138;28;20468;-85
2021/01/19 09:21:50;;;;;;;4.55;1.88;;;3.00;99.90;;;;;;4995432;28;20085;-85
2021/01/19 09:24:17;;;;;;;2.85;2.58;;;3.00;99.90;;;;;;5013004;28;20049;-87
2021/01/19 09:26:56;;;;;;;5.43;1.67;;;3.00;99.90;;;;;;5014297;28;20541;-85
2021/01/19 09:29:24;;;;;;;3.28;1.73;;;2.90;99.90;;;;;;5016549;28;20085;-84
2021/01/19 09:31:51;;;;;;;4.88;1.45;;;3.00;99.90;;;;;;4999166;28;20053;-84
2021/01/19 09:34:21;;;;;;;2.97;1.70;;;3.00;99.90;;;;;;5016609;28;20076;-82
2021/01/19 09:36:50;;;;;;;3.50;1.90;;;2.90;99.90;;;;;;5016474;28;20050;-85
2021/01/19 09:39:30;;;;;;;1.45;1.35;;;2.90;99.90;;;;;;5016614;28;20093;-86
2021/01/19 09:41:59;;;;;;;2.40;1.50;;;2.90;99.90;;;;;;4999050;28;20101;-86
2021/01/19 09:44:29;;;;;;;1.95;1.40;;;3.00;99.90;;;;;;4999103;28;20050;-84
2021/01/19 09:47:00;;;;;;;1.75;1.38;;;3.00;99.90;;;;;;5016148;28;20054;-86
2021/01/19 09:49:28;;;;;;;2.33;1.30;;;3.00;99.90;;;;;;5016109;28;20100;-86
2021/01/19 09:51:54;;;;;;;4.05;1.70;;;3.00;99.90;;;;;;4999034;28;20050;-85
2021/01/19 09:54:22;;;;;;;2.70;1.30;;;3.00;99.90;;;;;;4998821;28;20149;-86
2021/01/19 09:56:59;;;;;;;2.58;2.10;;;2.90;99.90;;;;;;4998786;28;20054;-84
2021/01/19 09:59:30;;;;;;;4.78;1.40;;;3.00;99.90;;;;;;4998647;28;20467;-85
2021/01/19 10:01:58;;;;;;;1.42;1.15;;;2.90;99.90;;;;;;4998513;28;20145;-83
2021/01/19 10:04:28;;;;;;;1.92;1.20;;;2.90;99.90;;;;;;5016005;28;20042;-85
2021/01/19 10:07:03;;;;;;;2.10;1.35;;;2.90;99.90;;;;;;4997972;28;20050;-85
2021/01/19 10:09:29;;;;;;;5.15;2.03;;;3.00;99.90;;;;;;4998358;28;20137;-86
2021/01/19 10:11:57;;;;;;;2.22;1.50;;;2.90;99.90;;;;;;4998454;28;20046;-86
2021/01/19 10:14:30;;;;;;;3.17;1.40;;;2.90;99.90;;;;;;4998329;28;20050;-84
2021/01/19 10:16:58;;;;;;;6.00;1.70;;;2.90;99.90;;;;;;4998331;28;20483;-84
2021/01/19 10:19:27;;;;;;;5.75;2.60;;;3.00;99.90;;;;;;4997791;28;20406;-84
2021/01/19 10:22:01;;;;;;;3.28;1.50;;;3.00;99.90;;;;;;5014658;28;20115;-86
2021/01/19 10:24:28;;;;;;;2.92;1.27;;;3.00;99.90;;;;;;5014600;28;20050;-86
2021/01/19 10:27:01;;;;;;;5.07;1.70;;;2.90;99.90;;;;;;5014937;28;20141;-84
2021/01/19 10:29:34;;;;;;;3.55;1.40;;;2.90;99.90;;;;;;4997756;28;20085;-86
2021/01/19 10:32:02;;;;;;;3.35;1.55;;;2.90;99.90;;;;;;4997444;28;20141;-85
2021/01/19 10:34:29;;;;;;;2.03;1.60;;;2.80;99.90;;;;;;4997620;28;20052;-84
2021/01/19 10:36:58;;;;;;;1.48;0.95;;;2.80;99.90;;;;;;4997208;28;20081;-84
2021/01/19 10:39:26;;;;;;;1.88;1.23;;;2.70;99.90;;;;;;5014979;28;20054;-84
2021/01/19 10:41:54;;;;;;;3.95;1.65;;;2.60;99.90;;;;;;4997377;28;20053;-85
2021/01/19 10:44:24;;;;;;;1.50;1.40;;;2.60;99.90;;;;;;5014261;28;20054;-85
2021/01/19 10:46:58;;;;;;;1.75;1.45;;;2.60;99.90;;;;;;5014912;28;20103;-84
2021/01/19 10:49:29;;;;;;;4.15;1.67;;;2.50;99.90;;;;;;4997217;28;20058;-84
2021/01/19 10:51:57;;;;;;;2.58;1.73;;;2.40;99.90;;;;;;5014450;28;20124;-84
2021/01/19 10:54:24;;;;;;;1.52;1.10;;;2.40;99.90;;;;;;4997431;28;20482;-85
2021/01/19 10:57:02;;;;;;;1.95;1.20;;;2.40;99.90;;;;;;4997090;28;20383;-86
2021/01/19 10:59:29;;;;;;;2.05;1.10;;;2.30;99.90;;;;;;5014460;28;20060;-84
2021/01/19 11:01:55;;;;;;;2.17;1.60;;;2.30;99.90;;;;;;5014318;28;20062;-86
2021/01/19 11:04:22;;;;;;;3.53;1.40;;;2.30;99.90;;;;;;5014309;28;20482;-84
2021/01/19 11:06:48;;;;;;;1.30;1.20;;;2.30;99.90;;;;;;4997064;28;20047;-84
2021/01/19 11:09:15;;;;;;;1.95;0.80;;;2.30;99.90;;;;;;5014168;28;20504;-85
2021/01/19 11:11:41;;;;;;;1.35;0.95;;;2.30;99.90;;;;;;5014452;28;20049;-84
2021/01/19 11:14:09;;;;;;;1.60;1.40;;;2.30;99.90;;;;;;4996785;28;20136;-86
2021/01/19 11:16:40;;;;;;;0.98;0.98;;;2.40;99.90;;;;;;5014074;28;20053;-84
2021/01/19 11:19:11;;;;;;;2.50;1.00;;;2.50;99.90;;;;;;5013987;28;20494;-85
2021/01/19 11:21:39;;;;;;;1.20;1.10;;;2.50;99.90;;;;;;5002853;28;20557;-84
2021/01/19 11:24:07;;;;;;;1.33;1.08;;;2.50;99.90;;;;;;5017486;28;20045;-84
2021/01/19 11:26:36;;;;;;;1.13;1.00;;;2.50;99.90;;;;;;5014257;28;20085;-85
2021/01/19 11:29:03;;;;;;;0.75;0.75;;;2.50;99.90;;;;;;4996193;28;20049;-85
2021/01/19 11:31:31;;;;;;;0.70;0.70;;;2.50;99.90;;;;;;5014045;28;20105;-86
2021/01/19 11:34:02;;;;;;;0.80;0.80;;;2.40;99.90;;;;;;4996660;28;20096;-84
2021/01/19 11:36:30;;;;;;;2.85;0.80;;;2.30;99.90;;;;;;5013928;28;20130;-85
2021/01/19 11:38:57;;;;;;;1.08;0.98;;;2.30;99.90;;;;;;4996359;28;20506;-86
2021/01/19 11:41:25;;;;;;;2.17;0.80;;;2.10;99.90;;;;;;5013648;28;20085;-85
2021/01/19 11:43:52;;;;;;;0.90;0.75;;;2.10;99.90;;;;;;4996542;28;20524;-85
2021/01/19 11:46:24;;;;;;;1.13;1.02;;;2.00;99.90;;;;;;4996537;28;20100;-86
2021/01/19 11:48:52;;;;;;;0.80;0.80;;;1.90;99.90;;;;;;4995944;28;20503;-86
2021/01/19 11:51:21;;;;;;;0.85;0.85;;;1.90;99.90;;;;;;4996134;28;20120;-85
2021/01/19 11:53:49;;;;;;;1.95;1.00;;;1.90;99.90;;;;;;5014009;28;20553;-86
2021/01/19 11:56:16;;;;;;;1.08;1.08;;;1.90;99.90;;;;;;4996545;28;20454;-86
2021/01/19 11:58:43;;;;;;;0.82;0.80;;;1.90;99.90;;;;;;5013845;28;20056;-86
2021/01/19 12:01:28;;;;;;;2.83;0.75;;;1.90;99.90;;;;;;5013611;28;20125;-86
2021/01/19 12:03:54;;;;;;;0.70;0.70;;;1.90;99.90;;;;;;5013733;28;20057;-86
2021/01/19 12:06:21;;;;;;;1.15;0.77;;;1.90;99.90;;;;;;4996131;28;20058;-85
2021/01/19 12:08:49;;;;;;;0.85;0.85;;;1.90;99.90;;;;;;5013333;28;20115;-86
2021/01/19 12:11:16;;;;;;;0.80;0.80;;;1.90;99.90;;;;;;4995975;28;20137;-86
2021/01/19 12:13:44;;;;;;;0.77;0.70;;;2.00;99.90;;;;;;4996385;28;20046;-86
2021/01/19 12:16:11;;;;;;;1.02;0.82;;;2.00;99.90;;;;;;5013142;28;20481;-85
2021/01/19 12:18:39;;;;;;;0.68;0.68;;;1.90;99.90;;;;;;4996083;28;20089;-85
2021/01/19 12:21:09;;;;;;;1.00;1.00;;;1.90;99.90;;;;;;5013529;28;20077;-85
2021/01/19 12:23:36;;;;;;;0.50;0.50;;;1.80;99.90;;;;;;4974527;28;20050;-85
2021/01/19 12:26:15;;;;;;;1.00;0.77;;;1.80;99.90;;;;;;4972372;28;20051;-87
2021/01/19 12:28:42;;;;;;;0.65;0.65;;;1.80;99.90;;;;;;4971233;28;20121;-88
2021/01/19 12:31:09;;;;;;;0.80;0.80;;;1.80;99.90;;;;;;4973292;28;20089;-87
2021/01/19 12:33:39;;;;;;;0.65;0.63;;;1.80;99.90;;;;;;4974643;28;20462;-86
2021/01/19 12:36:06;;;;;;;1.85;0.80;;;1.80;99.90;;;;;;4973282;28;20046;-85
2021/01/19 12:38:32;;;;;;;0.80;0.80;;;1.80;99.90;;;;;;4971767;28;20109;-86
2021/01/19 12:40:59;;;;;;;1.02;1.00;;;1.90;99.90;;;;;;4973847;28;20071;-86
2021/01/19 12:43:26;;;;;;;1.05;0.70;;;1.90;99.90;;;;;;4973594;28;20066;-87
2021/01/19 12:45:52;;;;;;;1.20;0.90;;;1.90;99.90;;;;;;4973838;28;20051;-87
2021/01/19 12:48:18;;;;;;;0.82;0.82;;;1.90;99.90;;;;;;4972343;28;20426;-86
2021/01/19 12:50:45;;;;;;;1.40;0.68;;;1.90;99.90;;;;;;4972751;28;20142;-84
2021/01/19 12:53:12;;;;;;;0.90;0.90;;;1.90;99.90;;;;;;4973476;28;20137;-85
2021/01/19 12:55:39;;;;;;;0.75;0.75;;;1.90;99.90;;;;;;4972362;28;20074;-83
2021/01/19 12:58:05;;;;;;;1.30;1.20;;;1.90;99.90;;;;;;4972840;28;20495;-85
2021/01/19 13:00:31;;;;;;;0.88;0.88;;;1.90;99.90;;;;;;4972873;28;20114;-85
2021/01/19 13:02:58;;;;;;;3.90;1.25;;;1.90;99.90;;;;;;4976733;28;20055;-89
2021/01/19 13:05:24;;;;;;;2.15;1.17;;;1.90;99.90;;;;;;4976384;28;20051;-85
2021/01/19 13:07:50;;;;;;;0.65;0.65;;;1.90;99.90;;;;;;4976489;28;20078;-88
2021/01/19 13:10:17;;;;;;;1.38;0.80;;;2.00;99.90;;;;;;4977487;28;20495;-88
2021/01/19 13:12:43;;;;;;;0.85;0.57;;;2.00;99.90;;;;;;4975987;28;20132;-85
2021/01/19 13:15:10;;;;;;;0.60;0.60;;;2.00;99.90;;;;;;4977560;28;20085;-85
2021/01/19 13:17:38;;;;;;;1.20;1.10;;;2.00;99.90;;;;;;4976214;28;20051;-87